createdAt,value
2018-05-26T00:00:05.141Z,12.40
2018-05-26T00:03:11.221Z,12.30
2018-05-26T00:06:17.314Z,12.40
2018-05-26T00:09:23.440Z,12.20
2018-05-26T00:12:30.640Z,12.00
2018-05-26T00:15:37.571Z,12.00
2018-05-26T00:18:43.470Z,11.90
2018-05-26T00:21:49.594Z,12.00
2018-05-26T00:24:55.539Z,11.90
2018-05-26T00:28:01.566Z,11.90
2018-05-26T00:31:07.624Z,12.00
2018-05-26T00:34:13.756Z,11.90
2018-05-26T00:37:19.618Z,11.80
2018-05-26T00:40:25.572Z,11.70
2018-05-26T00:43:32.493Z,11.80
2018-05-26T00:46:38.645Z,11.80
2018-05-26T00:49:44.733Z,11.70
2018-05-26T00:52:51.857Z,11.50
2018-05-26T00:55:58.197Z,11.40
2018-05-26T00:59:04.958Z,11.30
2018-05-26T01:02:10.186Z,11.30
2018-05-26T01:05:16.540Z,11.20
2018-05-26T01:08:22.526Z,11.30
2018-05-26T01:11:28.778Z,11.30
2018-05-26T01:14:35.674Z,11.20
2018-05-26T01:17:41.373Z,11.20
2018-05-26T01:20:47.504Z,11.00
2018-05-26T01:23:55.367Z,11.00
2018-05-26T01:27:01.925Z,10.90
2018-05-26T01:30:08.828Z,10.80
2018-05-26T01:33:14.914Z,10.90
2018-05-26T01:36:21.036Z,10.90
2018-05-26T01:39:27.123Z,11.00
2018-05-26T01:42:33.308Z,10.80
2018-05-26T01:45:39.437Z,10.90
2018-05-26T01:48:45.301Z,10.80
2018-05-26T01:51:51.276Z,10.80
2018-05-26T01:54:58.062Z,10.60
2018-05-26T01:58:04.232Z,10.60
2018-05-26T02:01:10.410Z,10.60
2018-05-26T02:04:16.437Z,10.70
2018-05-26T02:07:22.513Z,10.90
2018-05-26T02:10:29.627Z,10.90
2018-05-26T02:13:35.593Z,10.90
2018-05-26T02:16:41.721Z,10.80
2018-05-26T02:19:47.517Z,10.70
2018-05-26T02:22:53.534Z,10.80
2018-05-26T02:25:59.444Z,10.70
2018-05-26T02:29:05.286Z,10.80
2018-05-26T02:32:11.570Z,10.80
2018-05-26T02:35:17.543Z,10.60
2018-05-26T02:38:23.356Z,10.50
2018-05-26T02:41:29.740Z,10.30
2018-05-26T02:44:35.728Z,10.20
2018-05-26T02:47:41.752Z,10.20
2018-05-26T02:50:47.551Z,10.20
2018-05-26T02:53:58.786Z,10.30
2018-05-26T02:57:05.648Z,10.30
2018-05-26T03:00:11.527Z,10.30
2018-05-26T03:03:17.617Z,10.30
2018-05-26T03:06:29.878Z,10.10
2018-05-26T03:09:42.711Z,10.00
2018-05-26T03:12:54.717Z,9.90
2018-05-26T03:16:06.579Z,9.90
2018-05-26T03:19:12.466Z,9.90
2018-05-26T03:22:18.672Z,9.90
2018-05-26T03:25:24.648Z,9.90
2018-05-26T03:28:31.482Z,9.90
2018-05-26T03:31:37.650Z,9.90
2018-05-26T03:34:44.577Z,9.90
2018-05-26T03:37:51.415Z,9.80
2018-05-26T03:40:57.458Z,9.90
2018-05-26T03:44:03.484Z,9.90
2018-05-26T03:47:10.528Z,9.90
2018-05-26T03:50:17.663Z,9.90
2018-05-26T03:53:24.140Z,9.90
2018-05-26T03:56:42.002Z,9.90
2018-05-26T04:00:13.192Z,9.90
2018-05-26T04:03:19.950Z,10.00
2018-05-26T04:06:26.194Z,10.10
2018-05-26T04:09:39.778Z,10.10
2018-05-26T04:12:45.371Z,10.60
2018-05-26T04:16:04.176Z,11.00
2018-05-26T04:19:11.107Z,10.90
2018-05-26T04:22:17.235Z,10.90
2018-05-26T04:25:23.513Z,11.30
2018-05-26T04:28:29.548Z,11.30
2018-05-26T04:31:36.350Z,11.30
2018-05-26T04:34:42.319Z,11.30
2018-05-26T04:37:49.279Z,11.30
2018-05-26T04:40:57.074Z,11.30
2018-05-26T04:44:04.065Z,11.30
2018-05-26T04:47:10.148Z,11.30
2018-05-26T04:50:18.088Z,11.50
2018-05-26T04:53:27.767Z,11.70
2018-05-26T04:56:33.788Z,11.90
2018-05-26T04:59:44.335Z,12.00
2018-05-26T05:02:55.897Z,12.20
2018-05-26T05:06:03.647Z,12.60
2018-05-26T05:09:09.531Z,12.60
2018-05-26T05:12:16.249Z,12.70
2018-05-26T05:15:22.319Z,12.90
2018-05-26T05:18:28.381Z,13.00
2018-05-26T05:21:34.202Z,13.20
2018-05-26T05:24:40.308Z,13.40
2018-05-26T05:27:46.559Z,16.40
2018-05-26T05:30:51.491Z,16.30
2018-05-26T05:33:58.518Z,19.60
2018-05-26T05:37:05.536Z,19.50
2018-05-26T05:40:12.222Z,20.30
2018-05-26T05:43:18.506Z,21.80
2018-05-26T05:46:26.193Z,22.70
2018-05-26T05:49:32.106Z,22.60
2018-05-26T05:52:39.070Z,22.90
2018-05-26T05:55:45.281Z,22.90
2018-05-26T05:58:52.248Z,23.70
2018-05-26T06:01:59.091Z,23.10
2018-05-26T06:05:06.849Z,22.50
2018-05-26T06:08:13.279Z,22.50
2018-05-26T06:11:19.832Z,23.10
2018-05-26T06:14:25.960Z,22.90
2018-05-26T06:17:32.126Z,22.40
2018-05-26T06:20:38.788Z,22.80
2018-05-26T06:23:44.605Z,22.60
2018-05-26T06:26:51.705Z,22.90
2018-05-26T06:29:57.712Z,22.90
2018-05-26T06:33:03.991Z,22.80
2018-05-26T06:36:10.829Z,23.50
2018-05-26T06:39:17.916Z,23.70
2018-05-26T06:42:24.857Z,24.60
2018-05-26T06:45:30.831Z,24.20
2018-05-26T06:48:36.675Z,24.10
2018-05-26T06:51:42.784Z,24.20
2018-05-26T06:54:49.000Z,24.10
2018-05-26T06:57:54.342Z,24.20
2018-05-26T07:01:00.423Z,24.10
2018-05-26T07:04:06.363Z,24.20
2018-05-26T07:07:12.417Z,23.90
2018-05-26T07:10:19.381Z,24.10
2018-05-26T07:13:25.279Z,24.10
2018-05-26T07:16:31.147Z,25.00
2018-05-26T07:19:36.957Z,25.40
2018-05-26T07:22:43.196Z,25.30
2018-05-26T07:25:49.219Z,26.20
2018-05-26T07:28:55.876Z,27.20
2018-05-26T07:32:02.023Z,27.30
2018-05-26T07:35:08.731Z,28.40
2018-05-26T07:38:14.747Z,28.20
2018-05-26T07:41:21.616Z,28.90
2018-05-26T07:44:27.654Z,28.90
2018-05-26T07:47:33.562Z,28.10
2018-05-26T07:50:40.800Z,28.10
2018-05-26T07:53:47.903Z,27.10
2018-05-26T07:56:54.250Z,27.00
2018-05-26T08:00:00.928Z,27.10
2018-05-26T08:03:06.940Z,26.70
2018-05-26T08:06:13.983Z,26.30
2018-05-26T08:09:20.998Z,25.60
2018-05-26T08:12:28.293Z,24.80
2018-05-26T08:15:35.027Z,24.20
2018-05-26T08:18:41.307Z,24.90
2018-05-26T08:21:47.406Z,25.10
2018-05-26T08:24:54.377Z,25.50
2018-05-26T08:28:00.580Z,25.50
2018-05-26T08:31:07.215Z,26.50
2018-05-26T08:34:13.252Z,27.10
2018-05-26T08:37:19.267Z,27.60
2018-05-26T08:40:25.130Z,28.20
2018-05-26T08:43:31.891Z,28.70
2018-05-26T08:46:37.848Z,28.70
2018-05-26T08:49:45.981Z,28.90
2018-05-26T08:52:52.783Z,28.80
2018-05-26T08:55:58.620Z,29.10
2018-05-26T08:59:04.532Z,28.80
2018-05-26T09:02:12.765Z,28.60
2018-05-26T09:05:19.598Z,28.60
2018-05-26T09:08:26.390Z,28.90
2018-05-26T09:11:33.480Z,29.00
2018-05-26T09:14:39.800Z,29.00
2018-05-26T09:17:47.795Z,29.40
2018-05-26T09:20:53.996Z,29.00
2018-05-26T09:24:00.777Z,29.80
2018-05-26T09:27:06.861Z,29.90
2018-05-26T09:30:13.833Z,30.10
2018-05-26T09:33:19.898Z,30.40
2018-05-26T09:36:29.600Z,30.20
2018-05-26T09:39:37.271Z,29.90
2018-05-26T09:42:44.418Z,30.00
2018-05-26T09:45:51.792Z,30.50
2018-05-26T09:48:59.995Z,31.60
2018-05-26T09:52:09.515Z,31.50
2018-05-26T09:55:20.230Z,32.00
2018-05-26T09:58:27.223Z,32.00
2018-05-26T10:01:33.640Z,32.10
2018-05-26T10:04:43.334Z,31.50
2018-05-26T10:07:52.059Z,31.50
2018-05-26T10:10:57.966Z,31.20
2018-05-26T10:14:03.834Z,31.70
2018-05-26T10:17:12.690Z,32.00
2018-05-26T10:20:20.500Z,31.10
2018-05-26T10:23:30.315Z,30.70
2018-05-26T10:26:40.846Z,31.00
2018-05-26T10:29:50.386Z,31.20
2018-05-26T10:32:58.699Z,31.10
2018-05-26T10:36:08.157Z,31.30
2018-05-26T10:39:18.904Z,31.30
2018-05-26T10:42:27.892Z,30.80
2018-05-26T10:45:44.532Z,31.00
2018-05-26T10:48:54.075Z,30.90
2018-05-26T10:52:01.538Z,30.90
2018-05-26T10:55:11.727Z,31.80
2018-05-26T10:58:21.778Z,31.60
2018-05-26T11:01:34.048Z,32.90
2018-05-26T11:04:45.680Z,32.80
2018-05-26T11:07:54.694Z,32.50
2018-05-26T11:11:02.092Z,32.00
2018-05-26T11:14:08.099Z,32.20
2018-05-26T11:17:14.345Z,32.20
2018-05-26T11:20:21.569Z,31.60
2018-05-26T11:23:28.497Z,31.10
2018-05-26T11:26:34.545Z,31.20
2018-05-26T11:29:42.233Z,31.10
2018-05-26T11:32:51.756Z,31.20
2018-05-26T11:35:58.078Z,31.80
2018-05-26T11:39:07.227Z,31.90
2018-05-26T11:42:14.306Z,31.60
2018-05-26T11:45:21.892Z,32.00
2018-05-26T11:48:29.674Z,32.70
2018-05-26T11:51:36.041Z,32.20
2018-05-26T11:54:43.461Z,32.50
2018-05-26T11:57:51.521Z,32.80
2018-05-26T12:00:59.366Z,33.40
2018-05-26T12:04:06.482Z,33.30
2018-05-26T12:07:14.633Z,33.30
2018-05-26T12:10:22.201Z,32.60
2018-05-26T12:13:30.738Z,32.60
2018-05-26T12:16:39.469Z,32.50
2018-05-26T12:19:45.925Z,32.20
2018-05-26T12:22:53.020Z,33.00
2018-05-26T12:25:58.923Z,32.90
2018-05-26T12:29:06.413Z,33.30
2018-05-26T12:32:12.612Z,33.60
2018-05-26T12:35:19.143Z,33.80
2018-05-26T12:38:25.898Z,34.50
2018-05-26T12:41:34.554Z,34.00
2018-05-26T12:44:43.774Z,33.50
2018-05-26T12:47:55.392Z,33.60
2018-05-26T12:51:04.657Z,34.10
2018-05-26T12:54:12.129Z,34.80
2018-05-26T12:57:23.728Z,34.10
2018-05-26T13:00:29.638Z,33.70
2018-05-26T13:03:36.607Z,33.50
2018-05-26T13:06:42.820Z,33.70
2018-05-26T13:09:52.127Z,33.60
2018-05-26T13:12:59.672Z,33.90
2018-05-26T13:16:08.008Z,33.60
2018-05-26T13:19:14.772Z,33.30
2018-05-26T13:22:23.475Z,33.80
2018-05-26T13:25:29.912Z,33.80
2018-05-26T13:28:41.144Z,34.40
2018-05-26T13:31:49.191Z,33.10
2018-05-26T13:34:56.808Z,33.00
2018-05-26T13:38:04.696Z,33.20
2018-05-26T13:41:10.808Z,33.00
2018-05-26T13:44:17.806Z,33.50
2018-05-26T13:47:25.045Z,32.50
2018-05-26T13:50:32.980Z,33.10
2018-05-26T13:53:51.520Z,33.30
2018-05-26T13:57:01.381Z,34.10
2018-05-26T14:00:08.496Z,34.00
2018-05-26T14:03:14.672Z,33.70
2018-05-26T14:06:21.194Z,33.40
2018-05-26T14:09:29.701Z,33.60
2018-05-26T14:12:37.111Z,33.60
2018-05-26T14:15:44.325Z,33.40
2018-05-26T14:18:52.205Z,33.20
2018-05-26T14:21:59.928Z,33.60
2018-05-26T14:25:08.407Z,33.60
2018-05-26T14:28:15.118Z,33.00
2018-05-26T14:31:22.527Z,33.40
2018-05-26T14:34:28.884Z,33.40
2018-05-26T14:37:35.005Z,33.10
2018-05-26T14:40:42.950Z,33.10
2018-05-26T14:43:53.943Z,33.10
2018-05-26T14:47:01.962Z,33.00
2018-05-26T14:50:07.934Z,33.60
2018-05-26T14:53:13.617Z,33.20
2018-05-26T14:56:23.685Z,32.70
2018-05-26T14:59:29.799Z,32.70
2018-05-26T15:02:35.769Z,33.20
2018-05-26T15:05:44.601Z,33.20
2018-05-26T15:08:50.470Z,33.60
2018-05-26T15:11:56.333Z,33.80
2018-05-26T15:15:04.216Z,33.80
2018-05-26T15:18:10.500Z,34.00
2018-05-26T15:21:17.373Z,32.70
2018-05-26T15:24:23.627Z,32.60
2018-05-26T15:27:29.461Z,32.70
2018-05-26T15:30:35.311Z,32.40
2018-05-26T15:33:41.429Z,32.10
2018-05-26T15:36:50.328Z,31.70
2018-05-26T15:39:56.242Z,31.30
2018-05-26T15:43:02.411Z,30.40
2018-05-26T15:46:08.610Z,29.80
2018-05-26T15:49:14.479Z,29.10
2018-05-26T15:52:20.586Z,28.70
2018-05-26T15:55:26.652Z,28.60
2018-05-26T15:58:32.422Z,28.40
2018-05-26T16:01:38.479Z,28.20
2018-05-26T16:04:47.282Z,28.80
2018-05-26T16:07:53.095Z,29.20
2018-05-26T16:10:59.053Z,28.80
2018-05-26T16:14:05.910Z,28.30
2018-05-26T16:17:12.189Z,28.30
2018-05-26T16:20:18.239Z,27.60
2018-05-26T16:23:24.306Z,27.50
2018-05-26T16:26:30.583Z,27.10
2018-05-26T16:29:36.559Z,26.60
2018-05-26T16:32:42.895Z,25.70
2018-05-26T16:35:48.947Z,25.60
2018-05-26T16:38:55.131Z,25.50
2018-05-26T16:42:01.120Z,25.40
2018-05-26T16:45:07.234Z,25.30
2018-05-26T16:48:13.426Z,25.10
2018-05-26T16:51:20.709Z,24.80
2018-05-26T16:54:26.565Z,24.70
2018-05-26T16:57:32.874Z,24.60
2018-05-26T17:00:39.069Z,24.50
2018-05-26T17:03:45.318Z,24.50
2018-05-26T17:06:51.358Z,24.40
2018-05-26T17:09:57.351Z,24.30
2018-05-26T17:13:03.497Z,24.30
2018-05-26T17:16:09.479Z,24.10
2018-05-26T17:19:15.660Z,23.90
2018-05-26T17:22:21.582Z,23.90
2018-05-26T17:25:27.837Z,23.90
2018-05-26T17:28:34.804Z,23.80
2018-05-26T17:31:41.609Z,23.70
2018-05-26T17:34:47.942Z,23.60
2018-05-26T17:37:54.638Z,23.60
2018-05-26T17:41:03.850Z,23.50
2018-05-26T17:44:11.456Z,23.30
2018-05-26T17:47:17.454Z,23.20
2018-05-26T17:50:23.559Z,23.20
2018-05-26T17:53:32.321Z,23.10
2018-05-26T17:56:39.857Z,23.00
2018-05-26T17:59:46.288Z,22.90
2018-05-26T18:02:55.144Z,22.70
2018-05-26T18:06:02.808Z,22.60
2018-05-26T18:09:09.605Z,22.60
2018-05-26T18:12:16.458Z,22.50
2018-05-26T18:15:24.262Z,22.40
2018-05-26T18:18:35.103Z,22.40
2018-05-26T18:21:43.955Z,22.20
2018-05-26T18:24:50.070Z,22.00
2018-05-26T18:27:58.507Z,21.70
2018-05-26T18:31:04.719Z,21.70
2018-05-26T18:34:14.343Z,21.60
2018-05-26T18:37:20.505Z,21.40
2018-05-26T18:40:27.486Z,21.20
2018-05-26T18:43:33.971Z,21.00
2018-05-26T18:46:39.969Z,20.90
2018-05-26T18:49:45.999Z,20.70
2018-05-26T18:52:53.202Z,20.50
2018-05-26T18:55:59.999Z,20.30
2018-05-26T18:59:05.934Z,20.10
2018-05-26T19:02:14.079Z,19.90
2018-05-26T19:05:19.989Z,19.80
2018-05-26T19:08:25.913Z,19.60
2018-05-26T19:11:31.888Z,19.40
2018-05-26T19:14:39.631Z,19.30
2018-05-26T19:17:47.323Z,19.10
2018-05-26T19:20:53.464Z,18.80
2018-05-26T19:23:59.594Z,18.70
2018-05-26T19:27:05.640Z,18.60
2018-05-26T19:30:11.597Z,18.40
2018-05-26T19:33:17.731Z,18.10
2018-05-26T19:36:23.730Z,17.90
2018-05-26T19:39:29.614Z,17.90
2018-05-26T19:42:36.457Z,17.80
2018-05-26T19:45:48.300Z,17.80
2018-05-26T19:48:55.259Z,17.70
2018-05-26T19:52:02.289Z,17.60
2018-05-26T19:55:08.549Z,17.50
2018-05-26T19:58:14.485Z,17.40
2018-05-26T20:01:21.268Z,17.20
2018-05-26T20:04:29.235Z,17.10
2018-05-26T20:07:35.243Z,17.00
2018-05-26T20:10:44.804Z,16.80
2018-05-26T20:13:52.223Z,16.50
2018-05-26T20:17:07.156Z,16.00
2018-05-26T20:20:18.073Z,15.90
2018-05-26T20:23:25.705Z,15.70
2018-05-26T20:26:35.589Z,15.70
2018-05-26T20:29:45.477Z,15.60
2018-05-26T20:32:58.619Z,15.70
2018-05-26T20:36:06.906Z,15.50
2018-05-26T20:39:15.927Z,15.50
2018-05-26T20:42:23.860Z,15.60
2018-05-26T20:45:29.919Z,15.60
2018-05-26T20:48:36.017Z,15.60
2018-05-26T20:51:43.419Z,15.50
2018-05-26T20:54:50.736Z,15.30
2018-05-26T20:57:56.736Z,14.90
2018-05-26T21:01:02.861Z,14.80
2018-05-26T21:04:08.965Z,14.90
2018-05-26T21:07:14.888Z,14.80
2018-05-26T21:10:23.797Z,14.70
2018-05-26T21:13:32.504Z,14.70
2018-05-26T21:16:39.304Z,14.40
2018-05-26T21:19:44.968Z,14.40
2018-05-26T21:22:50.837Z,14.50
2018-05-26T21:25:57.817Z,14.60
2018-05-26T21:29:03.701Z,14.60
2018-05-26T21:32:09.768Z,14.60
2018-05-26T21:35:17.838Z,14.60
2018-05-26T21:38:25.976Z,14.50
2018-05-26T21:41:33.679Z,14.50
2018-05-26T21:44:40.261Z,14.40
2018-05-26T21:47:59.245Z,14.50
2018-05-26T21:51:09.286Z,14.50
2018-05-26T21:54:15.927Z,14.50
2018-05-26T21:57:23.276Z,14.30
2018-05-26T22:00:29.141Z,14.30
2018-05-26T22:03:35.324Z,14.20
2018-05-26T22:06:42.600Z,14.20
2018-05-26T22:09:48.569Z,14.20
2018-05-26T22:12:55.441Z,14.20
2018-05-26T22:16:04.138Z,14.10
2018-05-26T22:19:10.134Z,13.90
2018-05-26T22:22:16.364Z,13.90
2018-05-26T22:25:23.218Z,14.00
2018-05-26T22:28:29.372Z,14.00
2018-05-26T22:31:36.434Z,14.00
2018-05-26T22:34:42.865Z,13.90
2018-05-26T22:37:49.372Z,13.80
2018-05-26T22:40:55.770Z,13.70
2018-05-26T22:44:02.790Z,13.60
2018-05-26T22:47:09.922Z,13.50
2018-05-26T22:50:17.426Z,13.60
2018-05-26T22:53:23.172Z,13.70
2018-05-26T22:56:30.326Z,13.60
2018-05-26T22:59:36.904Z,13.50
2018-05-26T23:02:43.272Z,13.40
2018-05-26T23:05:49.897Z,13.50
2018-05-26T23:08:56.211Z,13.40
2018-05-26T23:12:03.844Z,13.50
2018-05-26T23:15:11.875Z,13.50
2018-05-26T23:18:18.200Z,13.40
2018-05-26T23:21:26.195Z,13.30
2018-05-26T23:24:32.094Z,13.30
2018-05-26T23:27:40.151Z,13.30
2018-05-26T23:30:48.158Z,13.30
2018-05-26T23:33:53.959Z,13.30
2018-05-26T23:37:01.631Z,13.50
2018-05-26T23:40:08.549Z,13.40
2018-05-26T23:43:16.658Z,13.50
2018-05-26T23:46:23.237Z,13.40
2018-05-26T23:49:31.148Z,13.30
2018-05-26T23:52:40.510Z,13.30
2018-05-26T23:55:46.971Z,13.20
2018-05-26T23:58:53.797Z,13.30
